createdAt,value
2022-09-24T00:00:29.917Z,77.63
2022-09-24T00:03:39.276Z,78.07
2022-09-24T00:06:47.471Z,77.64
2022-09-24T00:09:53.888Z,78.21
2022-09-24T00:12:59.708Z,77.85
2022-09-24T00:16:08.573Z,77.96
2022-09-24T00:19:17.437Z,78.05
2022-09-24T00:22:23.844Z,78.01
2022-09-24T00:25:45.349Z,78.02
2022-09-24T00:28:52.731Z,78.22
2022-09-24T00:31:58.317Z,78.31
2022-09-24T00:35:08.245Z,78.32
2022-09-24T00:38:13.929Z,78.33
2022-09-24T00:41:21.172Z,78.66
2022-09-24T00:44:57.940Z,78.67
2022-09-24T00:48:05.782Z,78.68
2022-09-24T00:51:17.124Z,78.72
2022-09-24T00:54:28.999Z,78.67
2022-09-24T00:57:38.072Z,78.96
2022-09-24T01:00:47.346Z,78.72
2022-09-24T01:03:56.158Z,78.82
2022-09-24T01:07:05.713Z,79.06
2022-09-24T01:10:12.439Z,79.20
2022-09-24T01:13:43.317Z,78.77
2022-09-24T01:16:55.970Z,79.12
2022-09-24T01:20:31.261Z,78.92
2022-09-24T01:23:59.338Z,78.99
2022-09-24T01:27:13.027Z,79.08
2022-09-24T01:30:22.242Z,79.04
2022-09-24T01:33:33.998Z,79.04
2022-09-24T01:36:42.749Z,79.26
2022-09-24T01:39:50.344Z,79.26
2022-09-24T01:42:58.172Z,79.36
2022-09-24T01:46:09.320Z,79.38
2022-09-24T01:49:14.914Z,79.03
2022-09-24T01:52:28.345Z,78.88
2022-09-24T01:55:38.606Z,78.92
2022-09-24T01:58:52.591Z,79.21
2022-09-24T02:02:09.266Z,79.07
2022-09-24T02:05:24.933Z,78.91
2022-09-24T02:08:36.175Z,78.98
2022-09-24T02:11:42.660Z,79.00
2022-09-24T02:14:52.071Z,79.14
2022-09-24T02:18:05.912Z,79.56
2022-09-24T02:21:14.501Z,79.74
2022-09-24T02:24:26.048Z,79.75
2022-09-24T02:27:31.732Z,79.86
2022-09-24T02:30:44.977Z,80.23
2022-09-24T02:34:10.277Z,79.74
2022-09-24T02:37:20.508Z,80.06
2022-09-24T02:40:26.184Z,80.15
2022-09-24T02:43:35.144Z,79.97
2022-09-24T02:46:42.270Z,79.88
2022-09-24T02:49:51.511Z,79.75
2022-09-24T02:52:57.100Z,79.87
2022-09-24T02:56:03.945Z,79.89
2022-09-24T02:59:10.964Z,79.79
2022-09-24T03:02:17.535Z,79.90
2022-09-24T03:05:26.202Z,80.08
2022-09-24T03:08:35.970Z,80.12
2022-09-24T03:11:41.654Z,79.97
2022-09-24T03:14:48.099Z,80.35
2022-09-24T03:17:53.955Z,79.71
2022-09-24T03:21:05.479Z,80.05
2022-09-24T03:24:11.097Z,80.26
2022-09-24T03:27:17.680Z,80.29
2022-09-24T03:30:53.683Z,80.27
2022-09-24T03:34:00.174Z,80.58
2022-09-24T03:37:10.137Z,79.85
2022-09-24T03:40:16.654Z,79.96
2022-09-24T03:43:23.333Z,79.80
2022-09-24T03:46:30.611Z,80.51
2022-09-24T03:49:36.335Z,80.65
2022-09-24T03:52:45.627Z,80.44
2022-09-24T03:55:59.086Z,80.40
2022-09-24T03:59:06.128Z,80.02
2022-09-24T04:02:12.208Z,80.14
2022-09-24T04:05:19.031Z,80.03
2022-09-24T04:08:27.404Z,80.09
2022-09-24T04:11:35.462Z,80.08
2022-09-24T04:14:41.009Z,80.21
2022-09-24T04:17:53.192Z,80.59
2022-09-24T04:21:02.522Z,80.11
2022-09-24T04:24:13.440Z,80.44
2022-09-24T04:27:19.249Z,80.50
2022-09-24T04:30:27.608Z,80.57
2022-09-24T04:33:33.190Z,80.27
2022-09-24T04:36:39.736Z,80.22
2022-09-24T04:39:48.361Z,79.97
2022-09-24T04:42:55.081Z,80.61
2022-09-24T04:46:02.906Z,80.28
2022-09-24T04:49:09.775Z,80.64
2022-09-24T04:52:15.990Z,80.26
2022-09-24T04:55:39.557Z,80.39
2022-09-24T04:58:45.137Z,81.03
2022-09-24T05:01:51.765Z,80.57
2022-09-24T05:04:57.887Z,80.80
2022-09-24T05:08:05.560Z,80.76
2022-09-24T05:11:14.132Z,80.68
2022-09-24T05:14:20.562Z,80.53
2022-09-24T05:17:26.156Z,80.41
2022-09-24T05:20:32.595Z,80.13
2022-09-24T05:23:38.136Z,80.63
2022-09-24T05:27:02.911Z,80.50
2022-09-24T05:30:09.218Z,80.10
2022-09-24T05:33:15.654Z,80.33
2022-09-24T05:36:21.451Z,80.59
2022-09-24T05:39:33.452Z,80.19
2022-09-24T05:42:43.312Z,79.53
2022-09-24T05:45:50.758Z,79.49
2022-09-24T05:48:56.334Z,79.41
2022-09-24T05:52:03.105Z,79.28
2022-09-24T05:55:10.194Z,78.66
2022-09-24T05:58:19.493Z,78.63
2022-09-24T06:01:25.130Z,78.69
2022-09-24T06:04:31.548Z,78.43
2022-09-24T06:07:37.116Z,78.32
2022-09-24T06:10:43.961Z,77.97
2022-09-24T06:13:52.584Z,78.19
2022-09-24T06:17:00.051Z,77.84
2022-09-24T06:20:07.398Z,77.78
2022-09-24T06:23:14.545Z,77.79
2022-09-24T06:26:20.150Z,77.51
2022-09-24T06:29:29.399Z,77.45
2022-09-24T06:32:35.013Z,77.05
2022-09-24T06:35:42.972Z,76.79
2022-09-24T06:38:48.516Z,76.67
2022-09-24T06:41:54.954Z,76.15
2022-09-24T06:45:04.507Z,76.16
2022-09-24T06:48:12.620Z,76.03
2022-09-24T06:51:18.189Z,76.11
2022-09-24T06:54:25.017Z,75.79
2022-09-24T06:57:30.674Z,75.18
2022-09-24T07:00:40.701Z,75.00
2022-09-24T07:03:46.320Z,75.01
2022-09-24T07:07:13.628Z,75.21
2022-09-24T07:10:19.440Z,75.43
2022-09-24T07:13:26.209Z,74.75
2022-09-24T07:16:34.553Z,74.39
2022-09-24T07:19:41.712Z,74.14
2022-09-24T07:22:47.354Z,73.73
2022-09-24T07:25:58.520Z,73.40
2022-09-24T07:29:04.110Z,73.10
2022-09-24T07:32:13.777Z,73.28
2022-09-24T07:35:21.447Z,73.10
2022-09-24T07:38:28.578Z,72.80
2022-09-24T07:41:37.441Z,72.30
2022-09-24T07:44:48.361Z,72.12
2022-09-24T07:48:03.687Z,71.97
2022-09-24T07:51:12.811Z,71.69
2022-09-24T07:54:18.494Z,71.42
2022-09-24T07:57:26.738Z,70.90
2022-09-24T08:00:32.266Z,70.94
2022-09-24T08:03:41.543Z,71.13
2022-09-24T08:06:47.812Z,71.22
2022-09-24T08:09:54.296Z,70.60
2022-09-24T08:13:00.019Z,69.93
2022-09-24T08:16:08.800Z,69.67
2022-09-24T08:19:17.276Z,69.32
2022-09-24T08:22:23.666Z,69.21
2022-09-24T08:25:29.235Z,69.28
2022-09-24T08:28:36.218Z,68.92
2022-09-24T08:31:42.823Z,68.92
2022-09-24T08:34:52.841Z,68.67
2022-09-24T08:38:02.801Z,67.95
2022-09-24T08:41:27.320Z,67.68
2022-09-24T08:44:55.265Z,67.39
2022-09-24T08:48:07.362Z,66.78
2022-09-24T08:51:21.202Z,66.71
2022-09-24T08:54:30.666Z,66.12
2022-09-24T08:57:47.776Z,65.85
2022-09-24T09:01:00.370Z,65.88
2022-09-24T09:04:22.059Z,65.54
2022-09-24T09:07:35.441Z,64.74
2022-09-24T09:10:44.266Z,64.63
2022-09-24T09:13:59.046Z,64.56
2022-09-24T09:17:07.127Z,63.95
2022-09-24T09:20:20.358Z,63.96
2022-09-24T09:23:35.671Z,63.64
2022-09-24T09:26:43.152Z,63.27
2022-09-24T09:29:53.435Z,63.08
2022-09-24T09:33:26.741Z,62.71
2022-09-24T09:36:45.541Z,62.13
2022-09-24T09:40:02.537Z,61.66
2022-09-24T09:43:14.302Z,61.18
2022-09-24T09:46:26.457Z,61.43
2022-09-24T09:49:38.705Z,60.73
2022-09-24T09:52:45.120Z,60.24
2022-09-24T09:56:00.398Z,59.66
2022-09-24T09:59:11.042Z,59.52
2022-09-24T10:02:25.995Z,59.26
2022-09-24T10:05:33.935Z,59.23
2022-09-24T10:08:40.690Z,59.10
2022-09-24T10:11:50.214Z,58.62
2022-09-24T10:15:02.811Z,58.42
2022-09-24T10:18:09.804Z,58.29
2022-09-24T10:21:28.327Z,57.65
2022-09-24T10:24:35.277Z,57.41
2022-09-24T10:27:44.524Z,57.11
2022-09-24T10:30:54.353Z,57.11
2022-09-24T10:34:03.452Z,56.89
2022-09-24T10:37:19.132Z,56.19
2022-09-24T10:40:28.645Z,55.82
2022-09-24T10:43:38.908Z,55.80
2022-09-24T10:47:08.211Z,55.45
2022-09-24T10:50:29.173Z,56.01
2022-09-24T10:53:51.806Z,56.14
2022-09-24T10:57:00.416Z,55.39
2022-09-24T11:00:14.526Z,54.55
2022-09-24T11:03:48.672Z,53.79
2022-09-24T11:07:12.064Z,54.29
2022-09-24T11:10:51.947Z,54.07
2022-09-24T11:14:06.163Z,54.32
2022-09-24T11:17:36.427Z,53.93
2022-09-24T11:20:46.960Z,54.22
2022-09-24T11:24:23.700Z,53.83
2022-09-24T11:27:52.085Z,53.58
2022-09-24T11:31:08.677Z,53.38
2022-09-24T11:34:40.704Z,52.66
2022-09-24T11:37:59.120Z,52.63
2022-09-24T11:41:21.514Z,52.06
2022-09-24T11:45:02.850Z,51.28
2022-09-24T11:48:24.592Z,50.81
2022-09-24T11:51:49.394Z,49.90
2022-09-24T11:55:05.732Z,49.75
2022-09-24T11:58:19.636Z,48.78
2022-09-24T12:01:29.894Z,48.86
2022-09-24T12:04:54.088Z,48.80
2022-09-24T12:08:09.834Z,48.79
2022-09-24T12:11:22.368Z,48.60
2022-09-24T12:14:32.027Z,48.28
2022-09-24T12:17:47.059Z,48.65
2022-09-24T12:20:58.036Z,48.45
2022-09-24T12:24:14.127Z,48.14
2022-09-24T12:27:22.363Z,48.52
2022-09-24T12:30:53.596Z,48.68
2022-09-24T12:34:08.019Z,48.55
2022-09-24T12:37:20.380Z,48.07
2022-09-24T12:41:02.885Z,47.66
2022-09-24T12:44:22.329Z,48.20
2022-09-24T12:47:31.756Z,48.75
2022-09-24T12:50:40.712Z,49.03
2022-09-24T12:53:57.932Z,48.77
2022-09-24T12:57:24.272Z,48.40
2022-09-24T13:00:41.485Z,48.56
2022-09-24T13:03:48.011Z,48.37
2022-09-24T13:06:53.786Z,48.62
2022-09-24T13:10:00.281Z,48.70
2022-09-24T13:13:26.337Z,48.14
2022-09-24T13:16:33.119Z,47.93
2022-09-24T13:19:42.510Z,48.00
2022-09-24T13:23:01.053Z,47.66
2022-09-24T13:26:09.341Z,47.58
2022-09-24T13:29:29.598Z,47.59
2022-09-24T13:32:39.898Z,47.67
2022-09-24T13:35:50.406Z,48.01
2022-09-24T13:39:00.102Z,48.33
2022-09-24T13:42:20.638Z,48.24
2022-09-24T13:45:29.792Z,48.62
2022-09-24T13:48:40.126Z,48.68
2022-09-24T13:51:49.759Z,48.97
2022-09-24T13:55:00.880Z,49.19
2022-09-24T13:58:07.326Z,49.05
2022-09-24T14:01:19.518Z,49.01
2022-09-24T14:04:25.848Z,49.09
2022-09-24T14:07:33.010Z,49.03
2022-09-24T14:10:40.184Z,49.21
2022-09-24T14:13:47.446Z,49.08
2022-09-24T14:16:56.891Z,49.26
2022-09-24T14:20:03.470Z,49.19
2022-09-24T14:23:09.351Z,49.22
2022-09-24T14:26:28.480Z,49.30
2022-09-24T14:29:46.995Z,49.55
2022-09-24T14:33:00.516Z,49.42
2022-09-24T14:36:07.905Z,49.48
2022-09-24T14:39:15.425Z,50.08
2022-09-24T14:42:28.341Z,49.90
2022-09-24T14:45:37.965Z,50.25
2022-09-24T14:48:46.492Z,50.27
2022-09-24T14:51:57.816Z,50.44
2022-09-24T14:55:19.592Z,50.58
2022-09-24T14:58:37.347Z,50.63
2022-09-24T15:01:43.100Z,50.39
2022-09-24T15:04:56.246Z,50.61
2022-09-24T15:08:23.128Z,50.52
2022-09-24T15:11:31.661Z,50.64
2022-09-24T15:14:39.137Z,51.05
2022-09-24T15:17:47.690Z,51.13
2022-09-24T15:20:57.162Z,51.23
2022-09-24T15:24:03.847Z,51.48
2022-09-24T15:27:19.141Z,51.89
2022-09-24T15:30:25.733Z,51.79
2022-09-24T15:33:31.267Z,52.11
2022-09-24T15:36:40.633Z,52.33
2022-09-24T15:39:49.382Z,53.00
2022-09-24T15:42:56.173Z,52.74
2022-09-24T15:46:03.013Z,52.97
2022-09-24T15:49:09.532Z,53.41
2022-09-24T15:52:24.670Z,53.60
2022-09-24T15:55:31.906Z,53.73
2022-09-24T15:58:37.843Z,53.82
2022-09-24T16:01:44.994Z,54.12
2022-09-24T16:04:51.069Z,54.31
2022-09-24T16:08:00.265Z,54.59
2022-09-24T16:11:09.164Z,54.86
2022-09-24T16:14:15.778Z,54.96
2022-09-24T16:17:21.415Z,55.17
2022-09-24T16:20:27.894Z,55.78
2022-09-24T16:23:36.514Z,56.21
2022-09-24T16:26:43.451Z,56.46
2022-09-24T16:29:51.217Z,56.91
2022-09-24T16:32:57.612Z,57.21
2022-09-24T16:36:07.733Z,57.39
2022-09-24T16:39:17.810Z,57.63
2022-09-24T16:42:26.464Z,57.99
2022-09-24T16:45:34.565Z,58.12
2022-09-24T16:48:40.786Z,58.50
2022-09-24T16:51:47.209Z,58.63
2022-09-24T16:54:55.539Z,58.87
2022-09-24T16:58:02.853Z,59.25
2022-09-24T17:01:09.605Z,59.65
2022-09-24T17:04:16.230Z,60.03
2022-09-24T17:07:21.845Z,60.19
2022-09-24T17:10:31.153Z,60.48
2022-09-24T17:13:36.791Z,60.74
2022-09-24T17:16:43.624Z,60.95
2022-09-24T17:19:49.186Z,61.14
2022-09-24T17:22:56.878Z,61.38
2022-09-24T17:26:11.703Z,61.61
2022-09-24T17:29:20.788Z,61.81
2022-09-24T17:32:26.961Z,62.11
2022-09-24T17:35:33.673Z,62.26
2022-09-24T17:38:39.975Z,62.42
2022-09-24T17:41:49.208Z,62.70
2022-09-24T17:44:54.783Z,62.80
2022-09-24T17:48:03.257Z,62.99
2022-09-24T17:51:10.829Z,63.19
2022-09-24T17:54:19.189Z,63.08
2022-09-24T17:57:29.499Z,63.44
2022-09-24T18:00:35.884Z,63.47
2022-09-24T18:03:42.270Z,63.62
2022-09-24T18:06:50.321Z,63.56
2022-09-24T18:09:56.309Z,63.70
2022-09-24T18:13:06.281Z,63.87
2022-09-24T18:16:14.278Z,63.96
2022-09-24T18:19:22.803Z,64.09
2022-09-24T18:22:28.404Z,64.42
2022-09-24T18:25:34.874Z,64.57
2022-09-24T18:28:44.733Z,64.59
2022-09-24T18:31:51.888Z,65.00
2022-09-24T18:34:57.507Z,64.75
2022-09-24T18:38:04.134Z,64.75
2022-09-24T18:41:12.070Z,64.93
2022-09-24T18:44:21.584Z,64.95
2022-09-24T18:47:27.174Z,65.15
2022-09-24T18:50:33.736Z,65.42
2022-09-24T18:53:39.358Z,65.55
2022-09-24T18:56:46.084Z,65.67
2022-09-24T18:59:54.397Z,65.49
2022-09-24T19:03:01.022Z,65.72
2022-09-24T19:06:08.438Z,65.62
2022-09-24T19:09:17.537Z,65.68
2022-09-24T19:12:23.210Z,65.86
2022-09-24T19:15:32.676Z,66.10
2022-09-24T19:18:38.652Z,66.40
2022-09-24T19:21:45.397Z,66.25
2022-09-24T19:24:52.257Z,66.54
2022-09-24T19:27:58.780Z,66.40
2022-09-24T19:31:07.545Z,66.37
2022-09-24T19:34:15.686Z,66.63
2022-09-24T19:37:21.343Z,66.51
2022-09-24T19:40:28.041Z,66.79
2022-09-24T19:43:34.346Z,66.79
2022-09-24T19:46:44.045Z,67.17
2022-09-24T19:49:49.727Z,67.12
2022-09-24T19:52:56.219Z,67.20
2022-09-24T19:56:03.082Z,67.53
2022-09-24T19:59:09.710Z,67.56
2022-09-24T20:02:18.534Z,67.45
2022-09-24T20:05:25.119Z,67.71
2022-09-24T20:08:30.994Z,67.87
2022-09-24T20:11:38.012Z,67.78
2022-09-24T20:14:44.021Z,67.67
2022-09-24T20:17:53.802Z,67.62
2022-09-24T20:20:59.361Z,68.16
2022-09-24T20:24:07.328Z,67.85
2022-09-24T20:27:30.750Z,67.96
2022-09-24T20:30:38.291Z,68.16
2022-09-24T20:33:46.710Z,67.90
2022-09-24T20:36:53.691Z,68.37
2022-09-24T20:39:59.481Z,68.33
2022-09-24T20:43:06.775Z,68.47
2022-09-24T20:46:14.308Z,68.57
2022-09-24T20:49:25.249Z,68.92
2022-09-24T20:52:30.782Z,68.85
2022-09-24T20:55:37.416Z,68.99
2022-09-24T20:58:44.348Z,69.65
2022-09-24T21:01:51.220Z,69.80
2022-09-24T21:04:59.644Z,69.89
2022-09-24T21:08:08.885Z,69.95
2022-09-24T21:11:18.206Z,70.28
2022-09-24T21:14:26.350Z,70.57
2022-09-24T21:17:31.929Z,70.55
2022-09-24T21:20:41.146Z,70.74
2022-09-24T21:23:47.648Z,70.87
2022-09-24T21:26:54.416Z,70.90
2022-09-24T21:30:00.128Z,71.36
2022-09-24T21:33:07.581Z,71.45
2022-09-24T21:36:18.744Z,71.59
2022-09-24T21:39:27.479Z,71.61
2022-09-24T21:42:34.533Z,72.15
2022-09-24T21:45:41.217Z,71.78
2022-09-24T21:48:46.797Z,72.09
2022-09-24T21:51:57.862Z,71.96
2022-09-24T21:55:03.446Z,72.14
2022-09-24T21:58:10.002Z,72.21
2022-09-24T22:01:19.349Z,72.06
2022-09-24T22:04:26.109Z,72.21
2022-09-24T22:07:34.543Z,72.34
2022-09-24T22:10:41.687Z,72.74
2022-09-24T22:13:48.024Z,72.85
2022-09-24T22:16:55.498Z,72.80
2022-09-24T22:20:01.429Z,73.24
2022-09-24T22:23:11.895Z,73.17
2022-09-24T22:26:18.827Z,73.30
2022-09-24T22:29:25.836Z,73.45
2022-09-24T22:32:31.656Z,73.52
2022-09-24T22:35:50.685Z,73.52
2022-09-24T22:39:00.418Z,73.84
2022-09-24T22:42:08.843Z,73.89
2022-09-24T22:45:14.912Z,73.71
2022-09-24T22:48:21.319Z,73.84
2022-09-24T22:51:28.455Z,73.99
2022-09-24T22:54:37.621Z,74.23
2022-09-24T22:57:43.230Z,73.94
2022-09-24T23:00:49.749Z,73.70
2022-09-24T23:03:56.934Z,73.96
2022-09-24T23:07:03.561Z,74.07
2022-09-24T23:10:13.946Z,74.33
2022-09-24T23:13:20.430Z,74.18
2022-09-24T23:16:28.056Z,74.44
2022-09-24T23:19:46.599Z,74.36
2022-09-24T23:22:52.299Z,74.77
2022-09-24T23:26:08.103Z,74.47
2022-09-24T23:29:14.269Z,74.65
2022-09-24T23:32:21.530Z,74.88
2022-09-24T23:35:27.613Z,74.71
2022-09-24T23:38:34.014Z,74.70
2022-09-24T23:41:42.501Z,75.13
2022-09-24T23:44:49.569Z,75.08
2022-09-24T23:47:55.130Z,74.93
2022-09-24T23:51:02.575Z,74.84
2022-09-24T23:54:08.804Z,74.83
2022-09-24T23:57:18.496Z,75.15
